Archival Weather

Norman Y Mineta San Jose Intl

San Jose, California (KSJC)

Report from: Tuesday, February 20, 2024 7:53 AM PST
Current time: Monday, June 24, 2024 4:05 AM PDT

Current weather – Weather history – Daily summaries
Weather forecast

Temperature12.8°C (55.0°F)
Dew point8.9°C (48.0°F)
Winds 10 kts (5.1 m/s, 11.5 mph) South-Southeast (150°)
Visibility10 mi. (16.1 km)
Clouds Few clouds 2,700 ft. (823 m)
Scattered clouds 5,000 ft. (1,524 m)
Ceiling: Broken clouds 8,000 ft. (2,438 m)
Altimeter30.06 in.Hg (1018 mB)
PrecipitiationTrace
Precip. events Rain began 2:54 PM
Rain ended 3:05 PM
Relative humidity77 %
Density altitude-249 ft. (-76 m)
Sea-level pressure101.8 kPa (1018 mB, 30.05 in.Hg)
Remarks Automated weather observing station with precipitation discriminator
Towering cumulus clouds observed distant south and northwest
Flight conditions Visual Meteorological Conditions
Raw dataKSJC 201553Z 15010KT 10SM FEW027 SCT050 BKN080 13/09 A3006 RMK AO2 RAB1454E05 SLP177 TCU DSNT S AND NW P0000 T01280089
An error has occurred. This application may no longer respond until reloaded. Reload 🗙